createdAt,value
2023-05-10T00:01:39.389Z,99846.75
2023-05-10T00:04:05.811Z,99844.09
2023-05-10T00:06:34.551Z,99850.22
2023-05-10T00:09:06.078Z,99857.31
2023-05-10T00:11:32.555Z,99850.69
2023-05-10T00:13:58.977Z,99846.38
2023-05-10T00:16:25.845Z,99847.34
2023-05-10T00:18:52.387Z,99850.28
2023-05-10T00:21:21.365Z,99846.97
2023-05-10T00:23:47.773Z,99846.25
2023-05-10T00:26:14.297Z,99854.34
2023-05-10T00:28:40.626Z,99843.22
2023-05-10T00:31:07.169Z,99849.50
2023-05-10T00:33:33.698Z,99839.22
2023-05-10T00:36:02.384Z,99844.81
2023-05-10T00:38:28.975Z,99838.53
2023-05-10T00:40:57.876Z,99841.44
2023-05-10T00:43:24.224Z,99858.28
2023-05-10T00:45:51.191Z,99850.34
2023-05-10T00:48:17.758Z,99852.00
2023-05-10T00:50:46.770Z,99854.81
2023-05-10T00:53:13.412Z,99855.63
2023-05-10T00:55:40.104Z,99854.81
2023-05-10T00:58:06.762Z,99861.06
2023-05-10T01:00:34.328Z,99860.91
2023-05-10T01:03:01.452Z,99861.91
2023-05-10T01:05:28.512Z,99861.22
2023-05-10T01:07:54.995Z,99854.28
2023-05-10T01:10:21.430Z,99854.41
2023-05-10T01:12:53.308Z,99855.56
2023-05-10T01:15:23.693Z,99856.81
2023-05-10T01:17:50.267Z,99859.03
2023-05-10T01:20:17.082Z,99863.50
2023-05-10T01:23:08.050Z,99858.78
2023-05-10T01:25:53.458Z,99863.09
2023-05-10T01:28:48.033Z,99863.78
2023-05-10T01:31:42.165Z,99860.16
2023-05-10T01:34:16.481Z,99865.56
2023-05-10T01:37:08.609Z,99862.09
2023-05-10T01:40:04.034Z,99863.19
2023-05-10T01:42:37.534Z,99867.66
2023-05-10T01:45:26.538Z,99873.22
2023-05-10T01:48:11.287Z,99874.88
2023-05-10T01:50:40.723Z,99879.34
2023-05-10T01:53:10.471Z,99873.38
2023-05-10T01:55:44.164Z,99866.03
2023-05-10T01:58:19.029Z,99875.91
2023-05-10T02:00:47.342Z,99871.72
2023-05-10T02:03:16.055Z,99869.09
2023-05-10T02:05:47.875Z,99877.97
2023-05-10T02:08:15.698Z,99882.44
2023-05-10T02:10:43.912Z,99880.63
2023-05-10T02:13:15.170Z,99884.25
2023-05-10T02:15:42.700Z,99886.06
2023-05-10T02:18:11.748Z,99888.44
2023-05-10T02:20:39.526Z,99886.78
2023-05-10T02:23:07.369Z,99889.41
2023-05-10T02:25:34.133Z,99900.81
2023-05-10T02:28:05.647Z,99901.63
2023-05-10T02:30:38.313Z,99904.56
2023-05-10T02:33:06.469Z,99904.44
2023-05-10T02:35:37.319Z,99902.75
2023-05-10T02:38:05.328Z,99914.16
2023-05-10T02:40:34.401Z,99909.16
2023-05-10T02:43:03.484Z,99896.94
2023-05-10T02:45:33.204Z,99896.94
2023-05-10T02:48:00.425Z,99904.84
2023-05-10T02:50:29.634Z,99903.88
2023-05-10T02:53:04.405Z,99905.53
2023-05-10T02:55:37.782Z,99910.81
2023-05-10T02:58:04.732Z,99910.53
2023-05-10T03:00:36.577Z,99912.34
2023-05-10T03:03:03.183Z,99907.91
2023-05-10T03:05:29.647Z,99905.53
2023-05-10T03:07:58.754Z,99901.94
2023-05-10T03:10:31.804Z,99906.53
2023-05-10T03:13:12.095Z,99893.31
2023-05-10T03:15:43.394Z,99900.25
2023-05-10T03:18:38.063Z,99903.88
2023-05-10T03:21:08.912Z,99898.03
2023-05-10T03:23:41.352Z,99906.94
2023-05-10T03:26:09.556Z,99913.31
2023-05-10T03:28:36.752Z,99913.31
2023-05-10T03:31:06.487Z,99920.25
2023-05-10T03:33:33.384Z,99919.97
2023-05-10T03:35:59.802Z,99919.97
2023-05-10T03:40:52.708Z,99923.34
2023-05-10T03:43:19.351Z,99926.25
2023-05-10T03:45:45.932Z,99918.59
2023-05-10T03:48:14.866Z,99925.16
2023-05-10T03:50:41.336Z,99918.63
2023-05-10T03:53:07.847Z,99927.91
2023-05-10T03:55:36.996Z,99930.84
2023-05-10T03:58:03.475Z,99919.59
2023-05-10T04:00:29.867Z,99924.47
2023-05-10T04:02:56.400Z,99933.59
2023-05-10T04:05:25.572Z,99928.59
2023-05-10T04:07:52.116Z,99941.09
2023-05-10T04:10:19.015Z,99949.28
2023-05-10T04:12:45.731Z,99949.56
2023-05-10T04:15:12.415Z,99948.97
2023-05-10T04:17:39.016Z,99957.88
2023-05-10T04:20:06.128Z,99952.88
2023-05-10T04:22:33.141Z,99963.56
2023-05-10T04:24:59.627Z,99959.94
2023-05-10T04:27:26.144Z,99953.00
2023-05-10T04:29:52.582Z,99951.63
2023-05-10T04:32:22.099Z,99958.56
2023-05-10T04:34:48.694Z,99957.44
2023-05-10T04:37:15.296Z,99957.44
2023-05-10T04:39:42.450Z,99967.44
2023-05-10T04:42:09.143Z,99957.72
2023-05-10T04:44:36.391Z,99956.38
2023-05-10T04:47:03.910Z,99955.25
2023-05-10T04:49:30.709Z,99963.84
2023-05-10T04:51:59.494Z,99962.88
2023-05-10T04:54:25.971Z,99954.00
2023-05-10T04:56:52.524Z,99963.31
2023-05-10T04:59:21.193Z,99959.47
2023-05-10T05:01:47.886Z,99964.47
2023-05-10T05:04:15.601Z,99971.13
2023-05-10T05:06:42.033Z,99953.34
2023-05-10T05:09:11.135Z,99955.69
2023-05-10T05:11:37.488Z,99964.34
2023-05-10T05:14:04.159Z,99968.06
2023-05-10T05:16:31.897Z,99977.91
2023-05-10T05:18:58.276Z,99979.47
2023-05-10T05:21:26.146Z,99977.78
2023-05-10T05:23:52.533Z,99978.34
2023-05-10T05:26:19.146Z,99979.75
2023-05-10T05:28:45.604Z,99986.13
2023-05-10T05:31:12.800Z,99983.88
2023-05-10T05:33:39.396Z,99983.63
2023-05-10T05:36:06.544Z,99980.00
2023-05-10T05:38:33.134Z,99983.03
2023-05-10T05:40:59.574Z,99994.69
2023-05-10T05:43:26.133Z,99994.84
2023-05-10T05:45:59.139Z,99990.78
2023-05-10T05:48:25.797Z,99978.25
2023-05-10T05:50:56.435Z,99994.00
2023-05-10T05:53:25.444Z,99992.44
2023-05-10T05:55:56.178Z,99994.47
2023-05-10T05:58:23.489Z,100002.16
2023-05-10T06:00:50.228Z,100005.78
2023-05-10T06:03:16.784Z,100008.97
2023-05-10T06:05:43.357Z,100016.88
2023-05-10T06:08:09.767Z,100017.13
2023-05-10T06:10:36.743Z,100024.28
2023-05-10T06:13:03.753Z,100027.63
2023-05-10T06:15:33.823Z,100026.63
2023-05-10T06:18:00.383Z,100035.25
2023-05-10T06:20:27.138Z,100032.16
2023-05-10T06:22:53.738Z,100031.47
2023-05-10T06:25:20.228Z,100033.81
2023-05-10T06:27:50.979Z,100045.78
2023-05-10T06:30:19.339Z,100041.47
2023-05-10T06:32:46.420Z,100049.63
2023-05-10T06:35:13.101Z,100052.00
2023-05-10T06:37:39.586Z,100042.69
2023-05-10T06:40:07.436Z,100047.69
2023-05-10T06:42:33.969Z,100052.00
2023-05-10T06:45:00.632Z,100050.75
2023-05-10T06:47:27.145Z,100052.09
2023-05-10T06:49:53.566Z,100052.81
2023-05-10T06:52:20.075Z,100058.25
2023-05-10T06:54:51.393Z,100046.31
2023-05-10T06:57:30.589Z,100055.53
2023-05-10T06:59:59.549Z,100062.47
2023-05-10T07:02:26.000Z,100053.84
2023-05-10T07:04:53.077Z,100061.06
2023-05-10T07:07:19.998Z,100061.06
2023-05-10T07:09:46.696Z,100061.66
2023-05-10T07:12:14.951Z,100071.66
2023-05-10T07:14:43.061Z,100059.94
2023-05-10T07:17:09.900Z,100072.81
2023-05-10T07:19:36.900Z,100065.88
2023-05-10T07:22:03.567Z,100074.00
2023-05-10T07:24:32.432Z,100069.84
2023-05-10T07:26:58.812Z,100069.25
2023-05-10T07:29:27.505Z,100066.59
2023-05-10T07:31:55.898Z,100072.00
2023-05-10T07:34:23.662Z,100063.63
2023-05-10T07:36:50.026Z,100055.78
2023-05-10T07:39:26.464Z,100057.78
2023-05-10T07:41:54.000Z,100049.69
2023-05-10T07:44:23.664Z,100053.78
2023-05-10T07:46:50.132Z,100056.88
2023-05-10T07:49:16.828Z,100058.41
2023-05-10T07:51:43.663Z,100058.72
2023-05-10T07:54:10.193Z,100056.59
2023-05-10T07:56:40.618Z,100063.75
2023-05-10T07:59:08.960Z,100063.66
2023-05-10T08:01:37.597Z,100068.56
2023-05-10T08:04:04.235Z,100069.59
2023-05-10T08:06:31.248Z,100070.06
2023-05-10T08:08:57.845Z,100072.91
2023-05-10T08:11:28.540Z,100060.03
2023-05-10T08:13:57.473Z,100073.25
2023-05-10T08:16:24.058Z,100072.28
2023-05-10T08:18:51.749Z,100070.69
2023-05-10T08:21:20.771Z,100068.31
2023-05-10T08:23:47.148Z,100075.34
2023-05-10T08:26:15.008Z,100070.44
2023-05-10T08:28:41.423Z,100069.09
2023-05-10T08:31:08.082Z,100070.47
2023-05-10T08:33:34.812Z,100059.50
2023-05-10T08:36:01.352Z,100060.13
2023-05-10T08:38:28.024Z,100058.13
2023-05-10T08:40:59.461Z,100060.44
2023-05-10T08:43:30.363Z,100059.72
2023-05-10T08:45:57.737Z,100072.94
2023-05-10T08:48:26.167Z,100064.53
2023-05-10T08:50:58.062Z,100082.06
2023-05-10T08:53:26.133Z,100086.34
2023-05-10T08:55:53.383Z,100085.63
2023-05-10T08:58:20.877Z,100083.75
2023-05-10T09:00:49.625Z,100085.47
2023-05-10T09:03:16.569Z,100096.91
2023-05-10T09:05:43.334Z,100098.75
2023-05-10T09:08:10.364Z,100091.06
2023-05-10T09:10:38.843Z,100089.31
2023-05-10T09:13:05.973Z,100095.03
2023-05-10T09:15:32.421Z,100092.97
2023-05-10T09:18:00.531Z,100090.31
2023-05-10T09:20:28.018Z,100097.25
2023-05-10T09:22:56.625Z,100105.50
2023-05-10T09:25:25.696Z,100104.81
2023-05-10T09:27:53.062Z,100085.72
2023-05-10T09:30:29.313Z,100090.19
2023-05-10T09:32:56.996Z,100093.84
2023-05-10T09:35:28.740Z,100098.22
2023-05-10T09:38:00.268Z,100089.44
2023-05-10T09:40:28.873Z,100095.81
2023-05-10T09:42:57.552Z,100096.56
2023-05-10T09:45:25.882Z,100099.31
2023-05-10T09:47:52.661Z,100098.06
2023-05-10T09:50:21.386Z,100092.06
2023-05-10T09:52:54.894Z,100077.78
2023-05-10T09:55:37.225Z,100086.09
2023-05-10T09:58:04.063Z,100096.94
2023-05-10T10:00:36.724Z,100087.59
2023-05-10T10:03:06.862Z,100076.81
2023-05-10T10:05:40.349Z,100089.47
2023-05-10T10:08:07.067Z,100098.28
2023-05-10T10:10:37.447Z,100092.13
2023-05-10T10:13:04.112Z,100093.41
2023-05-10T10:15:30.892Z,100087.22
2023-05-10T10:17:57.322Z,100102.94
2023-05-10T10:20:24.997Z,100094.34
2023-05-10T10:22:51.503Z,100091.69
2023-05-10T10:25:19.761Z,100111.94
2023-05-10T10:27:52.066Z,100112.56
2023-05-10T10:30:37.469Z,100104.34
2023-05-10T10:33:07.925Z,100108.81
2023-05-10T10:35:44.871Z,100116.88
2023-05-10T10:38:14.045Z,100113.72
2023-05-10T10:40:40.518Z,100102.53
2023-05-10T10:43:27.813Z,100099.97
2023-05-10T10:46:17.859Z,100078.41
2023-05-10T10:49:11.052Z,100090.59
2023-05-10T10:51:38.761Z,100083.47
2023-05-10T10:54:27.680Z,100057.88
2023-05-10T10:57:16.869Z,100049.53
2023-05-10T10:59:44.927Z,100059.75
2023-05-10T11:02:14.427Z,100078.31
2023-05-10T11:04:47.522Z,100069.78
2023-05-10T11:07:17.685Z,100048.66
2023-05-10T11:09:47.145Z,100052.81
2023-05-10T11:12:13.685Z,100058.09
2023-05-10T11:14:41.232Z,100065.66
2023-05-10T11:17:28.074Z,100079.22
2023-05-10T11:20:11.479Z,100081.72
2023-05-10T11:22:54.392Z,100082.75
2023-05-10T11:25:27.217Z,100094.09
2023-05-10T11:27:53.912Z,100079.78
2023-05-10T11:30:21.195Z,100098.06
2023-05-10T11:32:50.007Z,100087.78
2023-05-10T11:35:16.390Z,100110.03
2023-05-10T11:37:44.697Z,100100.34
2023-05-10T11:40:11.808Z,100105.38
2023-05-10T11:42:38.506Z,100099.69
2023-05-10T11:45:10.320Z,100116.41
2023-05-10T11:47:42.114Z,100098.44
2023-05-10T11:50:09.987Z,100112.06
2023-05-10T11:52:42.220Z,100104.19
2023-05-10T11:55:12.547Z,100092.97
2023-05-10T11:57:39.523Z,100099.09
2023-05-10T12:00:07.002Z,100086.03
2023-05-10T12:02:33.556Z,100087.88
2023-05-10T12:05:03.546Z,100088.84
2023-05-10T12:07:30.495Z,100106.53
2023-05-10T12:10:18.790Z,100109.56
2023-05-10T12:12:49.120Z,100100.41
2023-05-10T12:15:20.718Z,100111.56
2023-05-10T12:17:48.028Z,100111.59
2023-05-10T12:20:21.577Z,100117.25
2023-05-10T12:22:52.044Z,100111.75
2023-05-10T12:25:22.710Z,100115.97
2023-05-10T12:27:56.632Z,100110.94
2023-05-10T12:30:28.051Z,100112.94
2023-05-10T12:33:00.459Z,100099.56
2023-05-10T12:35:27.352Z,100082.78
2023-05-10T12:37:53.735Z,100118.25
2023-05-10T12:40:21.688Z,100109.94
2023-05-10T12:42:48.216Z,100113.41
2023-05-10T12:45:14.889Z,100094.34
2023-05-10T12:47:43.862Z,100115.25
2023-05-10T12:50:13.524Z,100117.66
2023-05-10T12:52:40.013Z,100097.38
2023-05-10T12:55:07.572Z,100113.88
2023-05-10T12:57:34.268Z,100089.63
2023-05-10T13:00:00.694Z,100097.16
2023-05-10T13:02:32.010Z,100085.22
2023-05-10T13:05:01.091Z,100092.19
2023-05-10T13:07:30.067Z,100102.31
2023-05-10T13:09:56.519Z,100077.09
2023-05-10T13:12:22.872Z,100089.13
2023-05-10T13:14:49.581Z,100091.44
2023-05-10T13:17:16.171Z,100095.50
2023-05-10T13:19:42.701Z,100075.81
2023-05-10T13:22:09.227Z,100088.59
2023-05-10T13:24:37.926Z,100060.28
2023-05-10T13:27:10.414Z,100072.59
2023-05-10T13:29:36.850Z,100079.13
2023-05-10T13:32:03.334Z,100068.22
2023-05-10T13:34:29.855Z,100078.88
2023-05-10T13:36:57.112Z,100062.72
2023-05-10T13:39:28.338Z,100073.13
2023-05-10T13:41:55.778Z,100077.09
2023-05-10T13:44:24.891Z,100066.63
2023-05-10T13:46:51.415Z,100070.84
2023-05-10T13:49:17.852Z,100055.31
2023-05-10T13:51:47.082Z,100055.91
2023-05-10T13:54:13.729Z,100070.19
2023-05-10T13:56:42.077Z,100074.28
2023-05-10T13:59:08.784Z,100061.28
2023-05-10T14:01:37.918Z,100061.47
2023-05-10T14:04:08.124Z,100060.53
2023-05-10T14:06:34.890Z,100051.25
2023-05-10T14:09:04.277Z,100034.69
2023-05-10T14:11:30.805Z,100053.06
2023-05-10T14:13:57.234Z,100062.69
2023-05-10T14:16:23.659Z,100052.94
2023-05-10T14:18:50.229Z,100038.63
2023-05-10T14:21:19.317Z,100046.44
2023-05-10T14:23:45.868Z,100049.75
2023-05-10T14:26:17.384Z,100031.09
2023-05-10T14:28:43.825Z,100037.09
2023-05-10T14:31:10.366Z,100037.47
2023-05-10T14:33:37.008Z,100029.22
2023-05-10T14:36:04.455Z,100044.06
2023-05-10T14:38:33.792Z,100034.00
2023-05-10T14:41:00.358Z,100033.53
2023-05-10T14:43:31.771Z,100044.53
2023-05-10T14:45:58.318Z,100031.25
2023-05-10T14:48:24.797Z,100033.53
2023-05-10T14:50:53.626Z,100028.66
2023-05-10T14:53:22.507Z,100037.66
2023-05-10T14:55:51.165Z,100032.56
2023-05-10T14:58:20.640Z,100042.38
2023-05-10T15:00:47.301Z,100033.50
2023-05-10T15:03:14.419Z,100032.19
2023-05-10T15:05:41.436Z,100032.06
2023-05-10T15:08:08.199Z,100045.53
2023-05-10T15:10:34.935Z,100016.56
2023-05-10T15:13:01.588Z,100045.47
2023-05-10T15:15:28.094Z,100033.97
2023-05-10T15:17:54.721Z,100026.16
2023-05-10T15:20:21.165Z,100039.38
2023-05-10T15:22:47.548Z,100042.25
2023-05-10T15:25:15.873Z,100027.91
2023-05-10T15:27:44.547Z,100031.94
2023-05-10T15:30:11.988Z,100036.91
2023-05-10T15:32:40.376Z,100017.31
2023-05-10T15:35:08.931Z,100034.78
2023-05-10T15:37:35.485Z,100017.22
2023-05-10T15:40:04.565Z,100014.91
2023-05-10T15:42:34.298Z,100026.63
2023-05-10T15:45:00.831Z,100030.66
2023-05-10T15:47:30.891Z,100010.59
2023-05-10T15:49:57.624Z,100027.69
2023-05-10T15:52:24.235Z,100021.66
2023-05-10T15:54:51.238Z,100029.47
2023-05-10T15:57:18.013Z,100022.56
2023-05-10T15:59:44.516Z,100030.63
2023-05-10T16:02:11.226Z,100043.63
2023-05-10T16:04:38.132Z,100031.31
2023-05-10T16:07:07.252Z,100050.63
2023-05-10T16:09:36.096Z,100050.31
2023-05-10T16:12:03.899Z,100040.00
2023-05-10T16:14:30.407Z,100041.03
2023-05-10T16:16:57.063Z,100038.69
2023-05-10T16:19:23.635Z,100045.91
2023-05-10T16:21:50.366Z,100046.09
2023-05-10T16:24:16.823Z,100045.44
2023-05-10T16:26:43.376Z,100038.31
2023-05-10T16:29:10.469Z,100033.38
2023-05-10T16:31:39.927Z,100035.38
2023-05-10T16:34:09.021Z,100048.50
2023-05-10T16:36:35.564Z,100056.16
2023-05-10T16:39:02.701Z,100041.53
2023-05-10T16:41:35.345Z,100060.50
2023-05-10T16:44:02.433Z,100041.56
2023-05-10T16:46:28.896Z,100036.91
2023-05-10T16:48:55.725Z,100048.38
2023-05-10T16:51:22.140Z,100061.19
2023-05-10T16:53:48.692Z,100063.84
2023-05-10T16:56:17.711Z,100061.69
2023-05-10T16:58:52.344Z,100069.16
2023-05-10T17:01:18.897Z,100062.53
2023-05-10T17:03:45.634Z,100066.19
2023-05-10T17:06:12.356Z,100072.19
2023-05-10T17:08:38.880Z,100073.53
2023-05-10T17:11:05.397Z,100076.66
2023-05-10T17:13:32.020Z,100081.44
2023-05-10T17:15:58.542Z,100094.44
2023-05-10T17:18:26.544Z,100104.03
2023-05-10T17:20:58.220Z,100102.72
2023-05-10T17:23:27.027Z,100099.41
2023-05-10T17:25:55.631Z,100095.88
2023-05-10T17:28:22.127Z,100094.06
2023-05-10T17:30:55.640Z,100097.00
2023-05-10T17:33:21.994Z,100109.28
2023-05-10T17:35:48.795Z,100110.59
2023-05-10T17:38:15.183Z,100119.22
2023-05-10T17:40:42.024Z,100115.22
2023-05-10T17:43:08.773Z,100115.53
2023-05-10T17:45:35.325Z,100114.19
2023-05-10T17:48:01.812Z,100133.25
2023-05-10T17:50:28.257Z,100119.09
2023-05-10T17:52:54.615Z,100111.13
2023-05-10T17:55:22.141Z,100121.53
2023-05-10T17:57:50.576Z,100116.00
2023-05-10T18:00:18.298Z,100115.97
2023-05-10T18:02:44.723Z,100128.19
2023-05-10T18:05:13.630Z,100131.47
2023-05-10T18:07:42.514Z,100141.19
2023-05-10T18:10:11.784Z,100129.69
2023-05-10T18:12:38.585Z,100128.31
2023-05-10T18:15:05.401Z,100124.84
2023-05-10T18:17:33.481Z,100137.75
2023-05-10T18:19:59.861Z,100134.56
2023-05-10T18:22:27.070Z,100131.56
2023-05-10T18:24:53.508Z,100150.88
2023-05-10T18:27:20.112Z,100151.03
2023-05-10T18:29:46.616Z,100137.25
2023-05-10T18:32:15.476Z,100142.69
2023-05-10T18:34:44.124Z,100145.50
2023-05-10T18:37:10.763Z,100141.03
2023-05-10T18:39:37.555Z,100150.81
2023-05-10T18:42:05.152Z,100135.75
2023-05-10T18:44:31.824Z,100138.38
2023-05-10T18:46:59.321Z,100146.63
2023-05-10T18:49:27.532Z,100127.69
2023-05-10T18:51:54.009Z,100144.22
2023-05-10T18:54:22.830Z,100139.81
2023-05-10T18:56:49.868Z,100149.38
2023-05-10T18:59:16.626Z,100153.44
2023-05-10T19:01:43.064Z,100157.50
2023-05-10T19:04:09.566Z,100160.28
2023-05-10T19:06:36.342Z,100164.75
2023-05-10T19:09:03.536Z,100167.56
2023-05-10T19:11:32.993Z,100175.94
2023-05-10T19:14:00.201Z,100170.94
2023-05-10T19:16:28.887Z,100172.91
2023-05-10T19:18:57.464Z,100182.00
2023-05-10T19:21:23.829Z,100189.69
2023-05-10T19:23:50.461Z,100199.88
2023-05-10T19:26:19.735Z,100204.81
2023-05-10T19:28:46.088Z,100202.59
2023-05-10T19:31:12.567Z,100209.44
2023-05-10T19:33:40.778Z,100210.03
2023-05-10T19:36:09.199Z,100209.06
2023-05-10T19:38:38.777Z,100216.16
2023-05-10T19:41:05.381Z,100213.53
2023-05-10T19:43:34.441Z,100214.50
2023-05-10T19:46:03.489Z,100213.53
2023-05-10T19:48:31.191Z,100224.13
2023-05-10T19:51:04.352Z,100224.41
2023-05-10T19:53:32.344Z,100228.97
2023-05-10T19:56:08.734Z,100227.31
2023-05-10T19:58:35.359Z,100225.50
2023-05-10T20:01:02.197Z,100233.75
2023-05-10T20:03:29.065Z,100229.13
2023-05-10T20:05:56.152Z,100230.25
2023-05-10T20:08:22.517Z,100232.22
2023-05-10T20:10:48.922Z,100236.16
2023-05-10T20:13:15.426Z,100237.28
2023-05-10T20:15:41.840Z,100235.03
2023-05-10T20:18:08.543Z,100244.25
2023-05-10T20:20:37.933Z,100243.16
2023-05-10T20:23:10.011Z,100250.81
2023-05-10T20:25:36.381Z,100247.06
2023-05-10T20:28:07.936Z,100254.03
2023-05-10T20:30:34.599Z,100251.94
2023-05-10T20:33:01.165Z,100249.75
2023-05-10T20:35:30.019Z,100256.66
2023-05-10T20:37:56.349Z,100258.75
2023-05-10T20:40:22.889Z,100249.81
2023-05-10T20:42:49.682Z,100262.06
2023-05-10T20:45:16.187Z,100258.84
2023-05-10T20:47:42.707Z,100258.28
2023-05-10T20:50:09.576Z,100262.34
2023-05-10T20:52:38.233Z,100257.56
2023-05-10T20:55:05.127Z,100262.84
2023-05-10T20:57:31.637Z,100255.34
2023-05-10T20:59:58.150Z,100264.50
2023-05-10T21:02:24.592Z,100263.94
2023-05-10T21:04:51.132Z,100274.50
2023-05-10T21:07:17.765Z,100271.03
2023-05-10T21:09:44.155Z,100271.16
2023-05-10T21:12:10.892Z,100276.44
2023-05-10T21:14:37.371Z,100280.91
2023-05-10T21:17:04.316Z,100269.75
2023-05-10T21:19:30.815Z,100268.22
2023-05-10T21:21:58.925Z,100271.13
2023-05-10T21:24:30.549Z,100268.06
2023-05-10T21:26:59.341Z,100268.84
2023-05-10T21:29:25.954Z,100267.44
2023-05-10T21:31:52.487Z,100255.75
2023-05-10T21:34:18.909Z,100260.44
2023-05-10T21:36:45.352Z,100271.53
2023-05-10T21:39:17.554Z,100265.00
2023-05-10T21:41:46.735Z,100267.16
2023-05-10T21:44:13.260Z,100257.28
2023-05-10T21:46:39.651Z,100270.19
2023-05-10T21:49:06.407Z,100269.94
2023-05-10T21:51:32.835Z,100274.78
2023-05-10T21:53:59.181Z,100267.38
2023-05-10T21:56:25.865Z,100266.78
2023-05-10T21:58:52.366Z,100268.72
2023-05-10T22:01:18.910Z,100266.47
2023-05-10T22:03:46.214Z,100268.66
2023-05-10T22:06:12.803Z,100274.19
2023-05-10T22:08:39.275Z,100270.00
2023-05-10T22:11:08.141Z,100274.72
2023-05-10T22:13:34.633Z,100272.44
2023-05-10T22:16:01.213Z,100265.75
2023-05-10T22:18:27.619Z,100263.38
2023-05-10T22:20:58.967Z,100263.63
2023-05-10T22:23:25.388Z,100267.34
2023-05-10T22:25:51.997Z,100269.28
2023-05-10T22:28:18.390Z,100267.84
2023-05-10T22:30:48.180Z,100269.06
2023-05-10T22:33:14.660Z,100270.03
2023-05-10T22:35:41.117Z,100275.56
2023-05-10T22:38:07.661Z,100281.09
2023-05-10T22:40:34.210Z,100284.56
2023-05-10T22:43:00.718Z,100288.03
2023-05-10T22:45:27.477Z,100286.84
2023-05-10T22:47:54.084Z,100286.00
2023-05-10T22:50:23.416Z,100283.75
2023-05-10T22:52:49.918Z,100292.88
2023-05-10T22:55:18.842Z,100283.38
2023-05-10T22:57:45.209Z,100286.16
2023-05-10T23:00:15.109Z,100288.31
2023-05-10T23:02:42.022Z,100291.34
2023-05-10T23:05:09.113Z,100288.09
2023-05-10T23:07:35.630Z,100283.19
2023-05-10T23:10:02.113Z,100290.50
2023-05-10T23:12:28.950Z,100288.97
2023-05-10T23:14:56.490Z,100287.41
2023-05-10T23:17:23.068Z,100298.06
2023-05-10T23:19:49.544Z,100302.59
2023-05-10T23:22:18.129Z,100306.06
2023-05-10T23:24:46.893Z,100300.47
2023-05-10T23:27:14.466Z,100309.19
2023-05-10T23:29:41.364Z,100305.13
2023-05-10T23:32:07.907Z,100308.72
2023-05-10T23:34:36.831Z,100311.50
2023-05-10T23:37:03.261Z,100307.41
2023-05-10T23:39:31.829Z,100305.50
2023-05-10T23:41:58.216Z,100307.31
2023-05-10T23:44:24.684Z,100309.06
2023-05-10T23:46:51.423Z,100310.88
2023-05-10T23:49:20.246Z,100313.41
2023-05-10T23:51:46.756Z,100313.28
2023-05-10T23:54:13.366Z,100309.19
2023-05-10T23:56:39.814Z,100310.28
2023-05-10T23:59:06.244Z,100309.94
